sensor_id;sensor_type;location;lat;lon;timestamp;pressure;altitude;pressure_sealevel;temperature;humidity
34374;BME280;20637;55.770;37.592;2024-02-04T00:00:47;96577.84;;;0.56;81.57
34374;BME280;20637;55.770;37.592;2024-02-04T00:03:13;96584.34;;;0.53;81.97
34374;BME280;20637;55.770;37.592;2024-02-04T00:05:39;96563.28;;;0.52;81.97
34374;BME280;20637;55.770;37.592;2024-02-04T00:08:05;96565.03;;;0.44;81.62
34374;BME280;20637;55.770;37.592;2024-02-04T00:10:31;96552.28;;;0.40;81.80
34374;BME280;20637;55.770;37.592;2024-02-04T00:12:56;96551.13;;;0.42;82.24
34374;BME280;20637;55.770;37.592;2024-02-04T00:15:22;96551.38;;;0.47;81.87
34374;BME280;20637;55.770;37.592;2024-02-04T00:17:48;96542.97;;;0.44;82.02
34374;BME280;20637;55.770;37.592;2024-02-04T00:20:13;96538.66;;;0.43;82.76
34374;BME280;20637;55.770;37.592;2024-02-04T00:22:39;96534.19;;;0.43;82.61
34374;BME280;20637;55.770;37.592;2024-02-04T00:25:05;96531.66;;;0.50;82.61
34374;BME280;20637;55.770;37.592;2024-02-04T00:27:32;96524.16;;;0.54;82.66
34374;BME280;20637;55.770;37.592;2024-02-04T00:29:58;96520.75;;;0.60;82.95
34374;BME280;20637;55.770;37.592;2024-02-04T00:32:24;96521.13;;;0.57;82.69
34374;BME280;20637;55.770;37.592;2024-02-04T00:34:50;96511.97;;;0.59;82.92
34374;BME280;20637;55.770;37.592;2024-02-04T00:37:16;96511.59;;;0.62;82.78
34374;BME280;20637;55.770;37.592;2024-02-04T00:39:41;96500.97;;;0.62;82.92
34374;BME280;20637;55.770;37.592;2024-02-04T00:42:07;96495.13;;;0.67;83.05
34374;BME280;20637;55.770;37.592;2024-02-04T00:44:33;96495.41;;;0.72;82.95
34374;BME280;20637;55.770;37.592;2024-02-04T00:46:59;96490.41;;;0.77;83.02
34374;BME280;20637;55.770;37.592;2024-02-04T00:49:24;96488.66;;;0.84;82.71
34374;BME280;20637;55.770;37.592;2024-02-04T00:51:51;96476.66;;;0.88;83.04
34374;BME280;20637;55.770;37.592;2024-02-04T00:54:17;96487.91;;;0.90;82.92
34374;BME280;20637;55.770;37.592;2024-02-04T00:56:43;96482.88;;;0.95;82.99
34374;BME280;20637;55.770;37.592;2024-02-04T00:59:08;96477.56;;;0.95;83.22
34374;BME280;20637;55.770;37.592;2024-02-04T01:01:34;96469.31;;;0.90;82.82
34374;BME280;20637;55.770;37.592;2024-02-04T01:04:01;96464.38;;;0.87;82.96
34374;BME280;20637;55.770;37.592;2024-02-04T01:06:26;96457.88;;;0.89;82.75
34374;BME280;20637;55.770;37.592;2024-02-04T01:08:53;96460.19;;;0.92;82.73
34374;BME280;20637;55.770;37.592;2024-02-04T01:11:19;96450.56;;;0.91;83.14
34374;BME280;20637;55.770;37.592;2024-02-04T01:13:45;96448.72;;;0.92;82.87
34374;BME280;20637;55.770;37.592;2024-02-04T01:16:10;96443.75;;;0.89;82.98
34374;BME280;20637;55.770;37.592;2024-02-04T01:18:36;96438.09;;;0.92;82.77
34374;BME280;20637;55.770;37.592;2024-02-04T01:21:02;96427.94;;;0.95;83.11
34374;BME280;20637;55.770;37.592;2024-02-04T01:23:28;96419.97;;;0.95;82.44
34374;BME280;20637;55.770;37.592;2024-02-04T01:25:53;96420.81;;;0.96;83.20
34374;BME280;20637;55.770;37.592;2024-02-04T01:28:19;96410.19;;;0.96;83.00
34374;BME280;20637;55.770;37.592;2024-02-04T01:30:44;96413.44;;;0.98;83.03
34374;BME280;20637;55.770;37.592;2024-02-04T01:33:10;96410.41;;;1.01;82.75
34374;BME280;20637;55.770;37.592;2024-02-04T01:35:36;96411.06;;;1.03;83.08
34374;BME280;20637;55.770;37.592;2024-02-04T01:38:01;96409.78;;;0.99;83.19
34374;BME280;20637;55.770;37.592;2024-02-04T01:40:27;96407.75;;;1.01;83.21
34374;BME280;20637;55.770;37.592;2024-02-04T01:42:53;96397.13;;;1.01;83.21
34374;BME280;20637;55.770;37.592;2024-02-04T01:45:18;96399.06;;;1.07;83.25
34374;BME280;20637;55.770;37.592;2024-02-04T01:47:44;96390.06;;;1.08;83.43
34374;BME280;20637;55.770;37.592;2024-02-04T01:50:10;96387.41;;;1.08;83.41
34374;BME280;20637;55.770;37.592;2024-02-04T01:52:37;96385.47;;;1.17;83.71
34374;BME280;20637;55.770;37.592;2024-02-04T01:55:05;96374.84;;;1.17;83.79
34374;BME280;20637;55.770;37.592;2024-02-04T01:57:32;96373.66;;;1.19;83.57
34374;BME280;20637;55.770;37.592;2024-02-04T02:00:02;96377.75;;;1.22;83.44
34374;BME280;20637;55.770;37.592;2024-02-04T02:02:34;96371.63;;;1.21;83.70
34374;BME280;20637;55.770;37.592;2024-02-04T02:05:04;96369.63;;;1.23;83.42
34374;BME280;20637;55.770;37.592;2024-02-04T02:07:30;96358.41;;;1.28;83.34
34374;BME280;20637;55.770;37.592;2024-02-04T02:09:57;96361.50;;;1.31;83.61
34374;BME280;20637;55.770;37.592;2024-02-04T02:12:25;96357.28;;;1.37;83.52
34374;BME280;20637;55.770;37.592;2024-02-04T02:14:59;96355.31;;;1.46;83.63
34374;BME280;20637;55.770;37.592;2024-02-04T02:17:35;96349.59;;;1.49;83.49
34374;BME280;20637;55.770;37.592;2024-02-04T02:23:07;96339.81;;;1.49;83.32
34374;BME280;20637;55.770;37.592;2024-02-04T02:25:34;96344.13;;;1.50;83.45
34374;BME280;20637;55.770;37.592;2024-02-04T02:28:01;96336.97;;;1.51;83.36
34374;BME280;20637;55.770;37.592;2024-02-04T02:30:27;96330.00;;;1.50;83.45
34374;BME280;20637;55.770;37.592;2024-02-04T02:32:53;96330.88;;;1.57;83.64
34374;BME280;20637;55.770;37.592;2024-02-04T02:35:19;96329.09;;;1.64;83.76
34374;BME280;20637;55.770;37.592;2024-02-04T02:40:40;96324.16;;;1.61;83.61
34374;BME280;20637;55.770;37.592;2024-02-04T02:43:10;96326.84;;;1.67;84.02
34374;BME280;20637;55.770;37.592;2024-02-04T02:45:39;96319.97;;;1.73;84.03
34374;BME280;20637;55.770;37.592;2024-02-04T02:48:07;96312.41;;;1.76;84.08
34374;BME280;20637;55.770;37.592;2024-02-04T02:50:36;96309.38;;;1.79;83.88
34374;BME280;20637;55.770;37.592;2024-02-04T02:53:01;96306.28;;;1.76;83.84
34374;BME280;20637;55.770;37.592;2024-02-04T02:55:27;96302.59;;;1.77;84.21
34374;BME280;20637;55.770;37.592;2024-02-04T02:57:53;96306.09;;;1.77;83.93
34374;BME280;20637;55.770;37.592;2024-02-04T03:00:19;96301.00;;;1.82;84.18
34374;BME280;20637;55.770;37.592;2024-02-04T03:02:44;96288.78;;;1.88;84.21
34374;BME280;20637;55.770;37.592;2024-02-04T03:05:11;96294.34;;;1.93;84.13
34374;BME280;20637;55.770;37.592;2024-02-04T03:07:37;96289.81;;;1.93;84.30
34374;BME280;20637;55.770;37.592;2024-02-04T03:10:03;96275.06;;;1.91;83.85
34374;BME280;20637;55.770;37.592;2024-02-04T03:12:29;96282.22;;;1.90;84.14
34374;BME280;20637;55.770;37.592;2024-02-04T03:14:54;96285.47;;;1.86;84.19
34374;BME280;20637;55.770;37.592;2024-02-04T03:17:20;96277.06;;;1.82;84.21
34374;BME280;20637;55.770;37.592;2024-02-04T03:19:48;96272.78;;;1.81;84.16
34374;BME280;20637;55.770;37.592;2024-02-04T03:22:17;96270.91;;;1.82;84.22
34374;BME280;20637;55.770;37.592;2024-02-04T03:24:43;96275.22;;;1.83;84.48
34374;BME280;20637;55.770;37.592;2024-02-04T03:27:09;96273.41;;;1.83;84.33
34374;BME280;20637;55.770;37.592;2024-02-04T03:29:35;96274.22;;;1.84;84.53
34374;BME280;20637;55.770;37.592;2024-02-04T03:32:01;96267.25;;;1.83;84.67
34374;BME280;20637;55.770;37.592;2024-02-04T03:34:27;96272.56;;;1.83;84.68
34374;BME280;20637;55.770;37.592;2024-02-04T03:36:53;96265.41;;;1.83;84.60
34374;BME280;20637;55.770;37.592;2024-02-04T03:39:18;96270.16;;;1.88;84.88
34374;BME280;20637;55.770;37.592;2024-02-04T03:41:44;96265.44;;;1.90;84.98
34374;BME280;20637;55.770;37.592;2024-02-04T03:44:10;96255.63;;;1.90;85.02
34374;BME280;20637;55.770;37.592;2024-02-04T03:46:35;96253.81;;;1.91;84.95
34374;BME280;20637;55.770;37.592;2024-02-04T03:49:02;96253.63;;;1.92;85.07
34374;BME280;20637;55.770;37.592;2024-02-04T03:51:27;96245.66;;;1.92;85.43
34374;BME280;20637;55.770;37.592;2024-02-04T03:53:53;96253.41;;;1.94;85.01
34374;BME280;20637;55.770;37.592;2024-02-04T03:56:19;96255.25;;;1.93;85.09
34374;BME280;20637;55.770;37.592;2024-02-04T03:58:44;96245.44;;;1.94;85.22
34374;BME280;20637;55.770;37.592;2024-02-04T04:01:11;96244.81;;;1.92;85.08
34374;BME280;20637;55.770;37.592;2024-02-04T04:03:41;96245.66;;;1.92;85.23
34374;BME280;20637;55.770;37.592;2024-02-04T04:06:06;96237.44;;;1.94;85.30
34374;BME280;20637;55.770;37.592;2024-02-04T04:08:32;96242.78;;;1.94;85.22
34374;BME280;20637;55.770;37.592;2024-02-04T04:10:58;96241.75;;;1.95;85.23
34374;BME280;20637;55.770;37.592;2024-02-04T04:13:23;96244.03;;;1.98;85.41
34374;BME280;20637;55.770;37.592;2024-02-04T04:15:50;96248.31;;;1.99;85.37
34374;BME280;20637;55.770;37.592;2024-02-04T04:18:16;96243.00;;;1.99;85.55
34374;BME280;20637;55.770;37.592;2024-02-04T04:20:42;96247.09;;;2.02;85.40
34374;BME280;20637;55.770;37.592;2024-02-04T04:23:08;96239.94;;;2.02;85.06
34374;BME280;20637;55.770;37.592;2024-02-04T04:25:33;96233.44;;;2.05;85.24
34374;BME280;20637;55.770;37.592;2024-02-04T04:27:59;96231.56;;;2.05;85.38
34374;BME280;20637;55.770;37.592;2024-02-04T04:30:25;96227.91;;;2.06;85.38
34374;BME280;20637;55.770;37.592;2024-02-04T04:32:50;96227.28;;;2.04;85.45
34374;BME280;20637;55.770;37.592;2024-02-04T04:35:16;96222.16;;;2.03;85.23
34374;BME280;20637;55.770;37.592;2024-02-04T04:37:42;96233.44;;;2.05;85.41
34374;BME280;20637;55.770;37.592;2024-02-04T04:40:08;96231.56;;;2.05;85.49
34374;BME280;20637;55.770;37.592;2024-02-04T04:42:34;96221.75;;;2.06;85.50
34374;BME280;20637;55.770;37.592;2024-02-04T04:45:00;96225.06;;;2.08;85.57
34374;BME280;20637;55.770;37.592;2024-02-04T04:47:25;96217.69;;;2.10;85.70
34374;BME280;20637;55.770;37.592;2024-02-04T04:49:51;96223.00;;;2.10;86.04
34374;BME280;20637;55.770;37.592;2024-02-04T04:52:17;96220.97;;;2.12;85.57
34374;BME280;20637;55.770;37.592;2024-02-04T04:54:42;96221.19;;;2.17;85.82
34374;BME280;20637;55.770;37.592;2024-02-04T04:57:08;96217.50;;;2.18;85.77
34374;BME280;20637;55.770;37.592;2024-02-04T04:59:34;96209.94;;;2.21;86.09
34374;BME280;20637;55.770;37.592;2024-02-04T05:02:01;96198.06;;;2.17;85.81
34374;BME280;20637;55.770;37.592;2024-02-04T05:04:27;96209.09;;;2.14;85.60
34374;BME280;20637;55.770;37.592;2024-02-04T05:06:53;96204.19;;;2.11;85.60
34374;BME280;20637;55.770;37.592;2024-02-04T05:09:19;96207.03;;;2.10;85.66
34374;BME280;20637;55.770;37.592;2024-02-04T05:11:44;96199.06;;;2.10;85.80
34374;BME280;20637;55.770;37.592;2024-02-04T05:14:10;96192.50;;;2.06;85.88
34374;BME280;20637;55.770;37.592;2024-02-04T05:16:36;96196.38;;;2.03;85.72
34374;BME280;20637;55.770;37.592;2024-02-04T05:19:02;96206.38;;;2.01;85.82
34374;BME280;20637;55.770;37.592;2024-02-04T05:21:28;96192.91;;;2.03;85.70
34374;BME280;20637;55.770;37.592;2024-02-04T05:23:54;96207.03;;;2.03;85.90
34374;BME280;20637;55.770;37.592;2024-02-04T05:26:20;96199.88;;;2.04;86.01
34374;BME280;20637;55.770;37.592;2024-02-04T05:28:46;96198.84;;;2.05;85.98
34374;BME280;20637;55.770;37.592;2024-02-04T05:31:12;96199.66;;;2.05;85.80
34374;BME280;20637;55.770;37.592;2024-02-04T05:33:37;96194.31;;;2.05;86.21
34374;BME280;20637;55.770;37.592;2024-02-04T05:36:03;96187.56;;;2.03;86.20
34374;BME280;20637;55.770;37.592;2024-02-04T05:38:29;96194.13;;;2.00;86.19
34374;BME280;20637;55.770;37.592;2024-02-04T05:40:55;96196.97;;;1.99;86.21
34374;BME280;20637;55.770;37.592;2024-02-04T05:43:21;96197.78;;;1.99;86.13
34374;BME280;20637;55.770;37.592;2024-02-04T05:45:46;96196.16;;;1.98;86.33
34374;BME280;20637;55.770;37.592;2024-02-04T05:48:14;96202.09;;;2.00;86.42
34374;BME280;20637;55.770;37.592;2024-02-04T05:50:39;96195.13;;;1.99;86.50
34374;BME280;20637;55.770;37.592;2024-02-04T05:53:05;96204.13;;;1.98;86.33
34374;BME280;20637;55.770;37.592;2024-02-04T05:55:31;96197.41;;;2.02;86.44
34374;BME280;20637;55.770;37.592;2024-02-04T05:57:56;96194.53;;;2.04;86.65
34374;BME280;20637;55.770;37.592;2024-02-04T06:00:23;96205.22;;;2.10;86.64
34374;BME280;20637;55.770;37.592;2024-02-04T06:02:49;96201.53;;;2.11;86.67
34374;BME280;20637;55.770;37.592;2024-02-04T06:05:14;96212.56;;;2.08;86.39
34374;BME280;20637;55.770;37.592;2024-02-04T06:07:42;96205.78;;;2.06;86.46
34374;BME280;20637;55.770;37.592;2024-02-04T06:10:09;96222.56;;;2.00;86.54
34374;BME280;20637;55.770;37.592;2024-02-04T06:12:35;96218.44;;;1.97;86.29
34374;BME280;20637;55.770;37.592;2024-02-04T06:15:00;96221.72;;;1.92;86.34
34374;BME280;20637;55.770;37.592;2024-02-04T06:17:27;96214.75;;;1.91;86.54
34374;BME280;20637;55.770;37.592;2024-02-04T06:19:53;96221.31;;;1.96;86.81
34374;BME280;20637;55.770;37.592;2024-02-04T06:22:19;96227.88;;;2.00;86.59
34374;BME280;20637;55.770;37.592;2024-02-04T06:24:45;96221.31;;;1.96;86.68
34374;BME280;20637;55.770;37.592;2024-02-04T06:27:11;96238.69;;;1.98;86.73
34374;BME280;20637;55.770;37.592;2024-02-04T06:29:37;96242.00;;;2.00;86.28
34374;BME280;20637;55.770;37.592;2024-02-04T06:32:05;96246.09;;;2.03;86.64
34374;BME280;20637;55.770;37.592;2024-02-04T06:34:31;96244.25;;;2.03;86.53
34374;BME280;20637;55.770;37.592;2024-02-04T06:36:56;96246.72;;;2.05;86.62
34374;BME280;20637;55.770;37.592;2024-02-04T06:39:22;96255.50;;;2.05;86.66
34374;BME280;20637;55.770;37.592;2024-02-04T06:41:48;96259.19;;;2.04;86.52
34374;BME280;20637;55.770;37.592;2024-02-04T06:44:14;96253.25;;;2.02;86.40
34374;BME280;20637;55.770;37.592;2024-02-04T06:46:40;96259.56;;;2.01;86.57
34374;BME280;20637;55.770;37.592;2024-02-04T06:49:06;96270.22;;;2.01;86.11
34374;BME280;20637;55.770;37.592;2024-02-04T06:51:32;96265.94;;;2.00;86.30
34374;BME280;20637;55.770;37.592;2024-02-04T06:53:58;96264.91;;;2.01;86.23
34374;BME280;20637;55.770;37.592;2024-02-04T06:56:23;96267.38;;;2.03;86.37
34374;BME280;20637;55.770;37.592;2024-02-04T06:58:49;96277.00;;;2.04;86.14
34374;BME280;20637;55.770;37.592;2024-02-04T07:01:15;96285.81;;;2.04;86.25
34374;BME280;20637;55.770;37.592;2024-02-04T07:03:40;96280.28;;;2.06;86.28
34374;BME280;20637;55.770;37.592;2024-02-04T07:06:06;96284.41;;;2.08;86.16
34374;BME280;20637;55.770;37.592;2024-02-04T07:08:32;96295.22;;;2.07;86.20
34374;BME280;20637;55.770;37.592;2024-02-04T07:10:57;96297.69;;;2.08;86.32
34374;BME280;20637;55.770;37.592;2024-02-04T07:13:23;96294.63;;;2.11;86.17
34374;BME280;20637;55.770;37.592;2024-02-04T07:15:49;96290.56;;;2.15;86.12
34374;BME280;20637;55.770;37.592;2024-02-04T07:18:14;96304.47;;;2.17;86.06
34374;BME280;20637;55.770;37.592;2024-02-04T07:20:41;96311.78;;;2.09;86.00
34374;BME280;20637;55.770;37.592;2024-02-04T07:23:07;96315.00;;;1.98;85.77
34374;BME280;20637;55.770;37.592;2024-02-04T07:25:33;96314.97;;;1.91;85.88
34374;BME280;20637;55.770;37.592;2024-02-04T07:28:00;96331.72;;;1.85;85.91
34374;BME280;20637;55.770;37.592;2024-02-04T07:30:25;96317.72;;;1.76;86.15
34374;BME280;20637;55.770;37.592;2024-02-04T07:32:51;96331.78;;;1.70;85.86
34374;BME280;20637;55.770;37.592;2024-02-04T07:35:16;96337.06;;;1.64;86.29
34374;BME280;20637;55.770;37.592;2024-02-04T07:37:42;96333.53;;;1.57;85.98
34374;BME280;20637;55.770;37.592;2024-02-04T07:40:10;96345.38;;;1.54;86.19
34374;BME280;20637;55.770;37.592;2024-02-04T07:42:35;96345.38;;;1.54;86.22
34374;BME280;20637;55.770;37.592;2024-02-04T07:45:01;96354.75;;;1.50;86.49
34374;BME280;20637;55.770;37.592;2024-02-04T07:47:35;96359.41;;;1.48;86.42
34374;BME280;20637;55.770;37.592;2024-02-04T07:50:00;96354.31;;;1.47;86.50
34374;BME280;20637;55.770;37.592;2024-02-04T07:52:26;96365.94;;;1.46;86.89
34374;BME280;20637;55.770;37.592;2024-02-04T07:54:51;96363.91;;;1.48;86.78
34374;BME280;20637;55.770;37.592;2024-02-04T07:57:17;96377.19;;;1.48;87.04
34374;BME280;20637;55.770;37.592;2024-02-04T07:59:43;96369.78;;;1.43;86.68
34374;BME280;20637;55.770;37.592;2024-02-04T08:02:08;96355.94;;;1.48;87.21
34374;BME280;20637;55.770;37.592;2024-02-04T08:04:34;96397.06;;;1.52;87.30
34374;BME280;20637;55.770;37.592;2024-02-04T08:07:00;96376.00;;;1.50;87.53
34374;BME280;20637;55.770;37.592;2024-02-04T08:09:26;96385.16;;;1.48;87.33
34374;BME280;20637;55.770;37.592;2024-02-04T08:11:51;96390.13;;;1.51;87.66
34374;BME280;20637;55.770;37.592;2024-02-04T08:14:17;96397.63;;;1.47;87.52
34374;BME280;20637;55.770;37.592;2024-02-04T08:16:43;96398.88;;;1.51;87.86
34374;BME280;20637;55.770;37.592;2024-02-04T08:19:11;96417.56;;;1.58;87.58
34374;BME280;20637;55.770;37.592;2024-02-04T08:21:37;96417.81;;;1.63;87.85
34374;BME280;20637;55.770;37.592;2024-02-04T08:24:03;96437.06;;;1.65;88.08
34374;BME280;20637;55.770;37.592;2024-02-04T08:26:29;96427.25;;;1.65;87.77
34374;BME280;20637;55.770;37.592;2024-02-04T08:28:55;96440.53;;;1.65;87.84
34374;BME280;20637;55.770;37.592;2024-02-04T08:31:20;96441.56;;;1.64;87.82
34374;BME280;20637;55.770;37.592;2024-02-04T08:33:46;96442.16;;;1.66;87.93
34374;BME280;20637;55.770;37.592;2024-02-04T08:36:12;96444.81;;;1.66;87.58
34374;BME280;20637;55.770;37.592;2024-02-04T08:38:38;96448.31;;;1.67;87.95
34374;BME280;20637;55.770;37.592;2024-02-04T08:41:04;96453.63;;;1.67;87.88
34374;BME280;20637;55.770;37.592;2024-02-04T08:43:30;96444.22;;;1.64;87.86
34374;BME280;20637;55.770;37.592;2024-02-04T08:45:55;96453.84;;;1.65;87.92
34374;BME280;20637;55.770;37.592;2024-02-04T08:48:21;96453.28;;;1.70;88.12
34374;BME280;20637;55.770;37.592;2024-02-04T08:50:47;96472.13;;;1.75;88.11
34374;BME280;20637;55.770;37.592;2024-02-04T08:53:12;96468.00;;;1.72;88.03
34374;BME280;20637;55.770;37.592;2024-02-04T08:55:38;96472.75;;;1.77;88.15
34374;BME280;20637;55.770;37.592;2024-02-04T08:58:04;96474.59;;;1.76;88.11
34374;BME280;20637;55.770;37.592;2024-02-04T09:00:29;96483.91;;;1.66;87.89
34374;BME280;20637;55.770;37.592;2024-02-04T09:02:55;96486.91;;;1.63;87.90
34374;BME280;20637;55.770;37.592;2024-02-04T09:05:21;96483.91;;;1.66;87.75
34374;BME280;20637;55.770;37.592;2024-02-04T09:07:47;96485.97;;;1.70;87.54
34374;BME280;20637;55.770;37.592;2024-02-04T09:10:13;96484.59;;;1.74;87.67
34374;BME280;20637;55.770;37.592;2024-02-04T09:12:38;96487.91;;;1.76;87.56
34374;BME280;20637;55.770;37.592;2024-02-04T09:15:05;96498.97;;;1.80;87.67
34374;BME280;20637;55.770;37.592;2024-02-04T09:17:31;96507.22;;;1.85;87.44
34374;BME280;20637;55.770;37.592;2024-02-04T09:19:59;96487.56;;;1.86;87.26
34374;BME280;20637;55.770;37.592;2024-02-04T09:22:25;96505.81;;;1.89;87.03
34374;BME280;20637;55.770;37.592;2024-02-04T09:24:51;96486.81;;;1.92;86.88
34374;BME280;20637;55.770;37.592;2024-02-04T09:27:17;96490.09;;;1.94;86.83
34374;BME280;20637;55.770;37.592;2024-02-04T09:29:42;96484.16;;;1.92;86.62
34374;BME280;20637;55.770;37.592;2024-02-04T09:32:08;96489.09;;;1.95;86.34
34374;BME280;20637;55.770;37.592;2024-02-04T09:34:34;96479.00;;;1.90;85.89
34374;BME280;20637;55.770;37.592;2024-02-04T09:36:59;96492.69;;;1.87;85.44
34374;BME280;20637;55.770;37.592;2024-02-04T09:39:26;96490.22;;;1.86;85.15
34374;BME280;20637;55.770;37.592;2024-02-04T09:41:53;96498.63;;;1.89;85.09
34374;BME280;20637;55.770;37.592;2024-02-04T09:44:21;96508.16;;;1.99;85.37
34374;BME280;20637;55.770;37.592;2024-02-04T09:46:48;96501.16;;;1.98;85.40
34374;BME280;20637;55.770;37.592;2024-02-04T09:49:14;96513.03;;;1.95;85.34
34374;BME280;20637;55.770;37.592;2024-02-04T09:51:41;96521.56;;;1.90;85.04
34374;BME280;20637;55.770;37.592;2024-02-04T09:54:09;96516.47;;;1.89;85.26
34374;BME280;20637;55.770;37.592;2024-02-04T09:56:35;96512.09;;;1.81;85.05
34374;BME280;20637;55.770;37.592;2024-02-04T09:59:04;96508.59;;;1.81;84.96
34374;BME280;20637;55.770;37.592;2024-02-04T10:01:31;96519.34;;;1.73;84.99
34374;BME280;20637;55.770;37.592;2024-02-04T10:03:57;96514.78;;;1.67;84.95
34374;BME280;20637;55.770;37.592;2024-02-04T10:06:23;96516.81;;;1.65;84.72
34374;BME280;20637;55.770;37.592;2024-02-04T10:08:49;96516.44;;;1.68;84.80
34374;BME280;20637;55.770;37.592;2024-02-04T10:11:15;96521.56;;;1.69;84.47
34374;BME280;20637;55.770;37.592;2024-02-04T10:13:45;96521.44;;;1.77;84.21
34374;BME280;20637;55.770;37.592;2024-02-04T10:16:12;96534.97;;;1.82;84.12
34374;BME280;20637;55.770;37.592;2024-02-04T10:18:41;96534.03;;;1.90;83.91
34374;BME280;20637;55.770;37.592;2024-02-04T10:21:15;96543.50;;;1.92;83.54
34374;BME280;20637;55.770;37.592;2024-02-04T10:23:41;96533.41;;;1.88;82.73
34374;BME280;20637;55.770;37.592;2024-02-04T10:26:06;96536.69;;;1.90;82.47
34374;BME280;20637;55.770;37.592;2024-02-04T10:28:32;96536.97;;;1.95;81.98
34374;BME280;20637;55.770;37.592;2024-02-04T10:30:58;96537.59;;;1.97;81.46
34374;BME280;20637;55.770;37.592;2024-02-04T10:33:23;96541.50;;;2.01;80.99
34374;BME280;20637;55.770;37.592;2024-02-04T10:35:49;96541.78;;;2.06;80.85
34374;BME280;20637;55.770;37.592;2024-02-04T10:38:14;96539.13;;;2.06;80.34
34374;BME280;20637;55.770;37.592;2024-02-04T10:40:40;96549.97;;;2.05;79.86
34374;BME280;20637;55.770;37.592;2024-02-04T10:43:07;96560.59;;;2.05;79.27
34374;BME280;20637;55.770;37.592;2024-02-04T10:45:35;96561.59;;;2.04;79.09
34374;BME280;20637;55.770;37.592;2024-02-04T10:48:04;96553.53;;;1.97;78.42
34374;BME280;20637;55.770;37.592;2024-02-04T10:50:34;96568.50;;;1.98;78.20
34374;BME280;20637;55.770;37.592;2024-02-04T10:53:05;96566.66;;;1.99;78.00
34374;BME280;20637;55.770;37.592;2024-02-04T10:55:37;96572.97;;;1.98;77.45
34374;BME280;20637;55.770;37.592;2024-02-04T10:58:06;96580.47;;;1.87;77.03
34374;BME280;20637;55.770;37.592;2024-02-04T11:00:32;96578.63;;;1.88;77.02
34374;BME280;20637;55.770;37.592;2024-02-04T11:02:59;96580.34;;;1.96;76.95
34374;BME280;20637;55.770;37.592;2024-02-04T11:05:26;96574.47;;;2.00;76.75
34374;BME280;20637;55.770;37.592;2024-02-04T11:07:52;96574.91;;;2.04;76.87
34374;BME280;20637;55.770;37.592;2024-02-04T11:10:18;96571.69;;;2.08;76.71
34374;BME280;20637;55.770;37.592;2024-02-04T11:12:46;96573.13;;;2.11;76.67
34374;BME280;20637;55.770;37.592;2024-02-04T11:15:15;96568.06;;;2.16;76.51
34374;BME280;20637;55.770;37.592;2024-02-04T11:18:02;96583.72;;;2.25;76.69
34374;BME280;20637;55.770;37.592;2024-02-04T11:23:14;96580.47;;;2.30;76.22
34374;BME280;20637;55.770;37.592;2024-02-04T11:25:52;96576.81;;;2.31;75.95
34374;BME280;20637;55.770;37.592;2024-02-04T11:28:21;96582.31;;;2.29;75.57
34374;BME280;20637;55.770;37.592;2024-02-04T11:30:47;96580.22;;;2.25;75.25
34374;BME280;20637;55.770;37.592;2024-02-04T11:33:20;96580.78;;;2.20;74.96
34374;BME280;20637;55.770;37.592;2024-02-04T11:35:46;96583.09;;;2.23;74.57
34374;BME280;20637;55.770;37.592;2024-02-04T11:38:12;96583.31;;;2.28;74.86
34374;BME280;20637;55.770;37.592;2024-02-04T11:40:39;96586.41;;;2.32;74.13
34374;BME280;20637;55.770;37.592;2024-02-04T11:43:11;96592.84;;;2.37;74.35
34374;BME280;20637;55.770;37.592;2024-02-04T11:45:39;96592.06;;;2.44;74.17
34374;BME280;20637;55.770;37.592;2024-02-04T11:48:09;96593.41;;;2.54;74.31
34374;BME280;20637;55.770;37.592;2024-02-04T11:50:36;96587.50;;;2.59;74.31
34374;BME280;20637;55.770;37.592;2024-02-04T11:53:07;96588.06;;;2.54;73.70
34374;BME280;20637;55.770;37.592;2024-02-04T11:55:34;96609.69;;;2.45;73.78
34374;BME280;20637;55.770;37.592;2024-02-04T11:58:01;96600.63;;;2.39;73.66
34374;BME280;20637;55.770;37.592;2024-02-04T12:00:27;96601.00;;;2.36;73.83
34374;BME280;20637;55.770;37.592;2024-02-04T12:03:04;96602.22;;;2.33;73.75
34374;BME280;20637;55.770;37.592;2024-02-04T12:05:35;96601.50;;;2.25;73.71
34374;BME280;20637;55.770;37.592;2024-02-04T12:08:05;96609.31;;;2.26;73.83
34374;BME280;20637;55.770;37.592;2024-02-04T12:10:32;96606.66;;;2.26;73.86
34374;BME280;20637;55.770;37.592;2024-02-04T12:13:06;96599.28;;;2.28;74.05
34374;BME280;20637;55.770;37.592;2024-02-04T12:15:35;96613.03;;;2.32;73.79
34374;BME280;20637;55.770;37.592;2024-02-04T12:18:08;96613.34;;;2.44;74.00
34374;BME280;20637;55.770;37.592;2024-02-04T12:20:36;96612.16;;;2.46;73.98
34374;BME280;20637;55.770;37.592;2024-02-04T12:23:05;96606.59;;;2.41;73.54
34374;BME280;20637;55.770;37.592;2024-02-04T12:25:31;96607.41;;;2.42;73.34
34374;BME280;20637;55.770;37.592;2024-02-04T12:28:01;96616.22;;;2.42;72.94
34374;BME280;20637;55.770;37.592;2024-02-04T12:30:29;96615.56;;;2.40;72.89
34374;BME280;20637;55.770;37.592;2024-02-04T12:33:01;96613.94;;;2.39;72.66
34374;BME280;20637;55.770;37.592;2024-02-04T12:35:29;96623.75;;;2.38;72.31
34374;BME280;20637;55.770;37.592;2024-02-04T12:37:57;96627.44;;;2.37;72.39
34374;BME280;20637;55.770;37.592;2024-02-04T12:40:24;96620.47;;;2.36;72.21
34374;BME280;20637;55.770;37.592;2024-02-04T12:43:00;96620.28;;;2.38;72.53
34374;BME280;20637;55.770;37.592;2024-02-04T12:45:30;96636.81;;;2.33;72.58
34374;BME280;20637;55.770;37.592;2024-02-04T12:47:57;96642.31;;;2.32;72.55
34374;BME280;20637;55.770;37.592;2024-02-04T12:50:24;96633.44;;;2.25;72.67
34374;BME280;20637;55.770;37.592;2024-02-04T12:53:02;96634.47;;;2.24;72.70
34374;BME280;20637;55.770;37.592;2024-02-04T12:55:28;96634.47;;;2.24;73.01
34374;BME280;20637;55.770;37.592;2024-02-04T12:58:11;96638.59;;;2.26;72.84
34374;BME280;20637;55.770;37.592;2024-02-04T13:00:43;96637.69;;;2.19;72.99
34374;BME280;20637;55.770;37.592;2024-02-04T13:03:09;96634.66;;;2.22;72.96
34374;BME280;20637;55.770;37.592;2024-02-04T13:05:35;96630.78;;;2.25;73.12